createdAt,value
2022-09-17T00:00:26.046Z,97293.84
2022-09-17T00:03:23.293Z,97287.38
2022-09-17T00:06:13.609Z,97292.56
2022-09-17T00:09:11.668Z,97297.00
2022-09-17T00:12:01.510Z,97288.53
2022-09-17T00:14:58.838Z,97300.69
2022-09-17T00:17:47.127Z,97288.31
2022-09-17T00:20:47.513Z,97298.47
2022-09-17T00:23:35.894Z,97294.25
2022-09-17T00:26:34.163Z,97285.50
2022-09-17T00:29:23.900Z,97291.06
2022-09-17T00:32:21.080Z,97285.88
2022-09-17T00:35:09.468Z,97299.19
2022-09-17T00:38:06.994Z,97297.19
2022-09-17T00:40:55.711Z,97294.56
2022-09-17T00:43:57.230Z,97295.00
2022-09-17T00:46:47.271Z,97295.31
2022-09-17T00:49:35.684Z,97297.53
2022-09-17T00:52:34.622Z,97293.78
2022-09-17T00:55:26.746Z,97292.34
2022-09-17T00:58:17.956Z,97290.91
2022-09-17T01:01:06.878Z,97288.50
2022-09-17T01:04:02.958Z,97289.53
2022-09-17T01:07:00.811Z,97282.41
2022-09-17T01:09:55.861Z,97286.59
2022-09-17T01:12:59.060Z,97285.22
2022-09-17T01:15:55.245Z,97283.47
2022-09-17T01:18:56.445Z,97284.28
2022-09-17T01:21:58.777Z,97292.34
2022-09-17T01:24:51.090Z,97290.09
2022-09-17T01:28:23.894Z,97277.03
2022-09-17T01:31:36.221Z,97284.31
2022-09-17T01:34:31.985Z,97289.75
2022-09-17T01:37:30.889Z,97281.53
2022-09-17T01:40:25.882Z,97282.84
2022-09-17T01:43:22.510Z,97285.19
2022-09-17T01:46:16.742Z,97283.94
2022-09-17T01:49:08.722Z,97289.63
2022-09-17T01:51:57.336Z,97299.31
2022-09-17T01:54:56.926Z,97300.03
2022-09-17T01:57:50.904Z,97291.06
2022-09-17T02:00:42.544Z,97283.03
2022-09-17T02:03:35.864Z,97288.53
2022-09-17T02:06:30.518Z,97279.50
2022-09-17T02:09:23.584Z,97286.75
2022-09-17T02:12:16.226Z,97292.09
2022-09-17T02:15:09.940Z,97295.31
2022-09-17T02:18:06.644Z,97284.25
2022-09-17T02:21:04.228Z,97279.78
2022-09-17T02:24:04.424Z,97292.28
2022-09-17T02:26:59.604Z,97294.84
2022-09-17T02:29:47.872Z,97290.00
2022-09-17T02:32:46.390Z,97301.84
2022-09-17T02:35:34.810Z,97308.38
2022-09-17T02:38:32.403Z,97300.06
2022-09-17T02:41:27.068Z,97302.56
2022-09-17T02:44:23.115Z,97303.13
2022-09-17T02:47:30.272Z,97301.91
2022-09-17T02:50:33.396Z,97293.63
2022-09-17T02:53:38.290Z,97291.06
2022-09-17T02:56:39.436Z,97299.25
2022-09-17T02:59:32.856Z,97288.81
2022-09-17T03:02:25.447Z,97284.78
2022-09-17T03:05:15.539Z,97284.28
2022-09-17T03:08:13.189Z,97272.47
2022-09-17T03:11:01.536Z,97281.66
2022-09-17T03:13:51.311Z,97280.53
2022-09-17T03:16:39.667Z,97272.47
2022-09-17T03:19:28.425Z,97264.94
2022-09-17T03:22:16.661Z,97261.53
2022-09-17T03:25:05.665Z,97259.03
2022-09-17T03:27:53.935Z,97259.22
2022-09-17T03:30:44.386Z,97263.00
2022-09-17T03:33:32.684Z,97252.97
2022-09-17T03:36:21.033Z,97261.97
2022-09-17T03:39:09.619Z,97257.19
2022-09-17T03:42:03.968Z,97245.25
2022-09-17T03:44:52.181Z,97248.25
2022-09-17T03:47:41.811Z,97249.00
2022-09-17T03:50:30.071Z,97242.97
2022-09-17T03:53:27.571Z,97246.72
2022-09-17T03:56:16.396Z,97236.38
2022-09-17T03:59:13.433Z,97231.72
2022-09-17T04:02:01.874Z,97233.72
2022-09-17T04:04:54.802Z,97242.63
2022-09-17T04:07:43.116Z,97239.09
2022-09-17T04:10:40.510Z,97243.09
2022-09-17T04:13:28.808Z,97240.91
2022-09-17T04:16:26.032Z,97244.69
2022-09-17T04:19:14.489Z,97235.84
2022-09-17T04:22:13.603Z,97228.75
2022-09-17T04:25:01.930Z,97235.53
2022-09-17T04:27:59.302Z,97230.78
2022-09-17T04:30:49.044Z,97227.03
2022-09-17T04:33:46.313Z,97225.00
2022-09-17T04:36:34.591Z,97223.69
2022-09-17T04:39:33.301Z,97241.84
2022-09-17T04:42:21.576Z,97242.91
2022-09-17T04:45:18.885Z,97249.19
2022-09-17T04:48:07.178Z,97250.66
2022-09-17T04:51:01.763Z,97254.69
2022-09-17T04:53:50.040Z,97253.19
2022-09-17T04:56:45.639Z,97256.19
2022-09-17T04:59:33.984Z,97251.13
2022-09-17T05:02:28.354Z,97246.06
2022-09-17T05:05:17.852Z,97247.78
2022-09-17T05:08:12.267Z,97233.94
2022-09-17T05:11:00.644Z,97235.66
2022-09-17T05:13:56.346Z,97226.03
2022-09-17T05:16:44.688Z,97220.75
2022-09-17T05:19:38.857Z,97227.97
2022-09-17T05:22:27.512Z,97233.09
2022-09-17T05:25:24.934Z,97240.13
2022-09-17T05:28:13.352Z,97242.44
2022-09-17T05:31:09.398Z,97241.03
2022-09-17T05:33:59.063Z,97235.00
2022-09-17T05:36:53.368Z,97235.16
2022-09-17T05:39:41.707Z,97229.78
2022-09-17T05:42:36.668Z,97222.09
2022-09-17T05:45:25.061Z,97222.44
2022-09-17T05:48:16.059Z,97215.38
2022-09-17T05:51:04.485Z,97222.91
2022-09-17T05:53:58.749Z,97233.97
2022-09-17T05:56:47.095Z,97244.78
2022-09-17T05:59:41.420Z,97253.59
2022-09-17T06:02:29.771Z,97244.59
2022-09-17T06:05:25.313Z,97242.88
2022-09-17T06:08:13.657Z,97256.22
2022-09-17T06:11:08.951Z,97255.59
2022-09-17T06:13:58.030Z,97251.81
2022-09-17T06:16:52.464Z,97246.59
2022-09-17T06:19:40.773Z,97247.63
2022-09-17T06:22:36.353Z,97232.59
2022-09-17T06:25:24.948Z,97236.03
2022-09-17T06:28:19.202Z,97237.31
2022-09-17T06:31:09.169Z,97231.03
2022-09-17T06:34:05.715Z,97228.56
2022-09-17T06:36:53.963Z,97224.78
2022-09-17T06:39:49.954Z,97240.31
2022-09-17T06:42:38.356Z,97248.38
2022-09-17T06:45:33.275Z,97247.69
2022-09-17T06:48:21.996Z,97241.25
2022-09-17T06:51:12.181Z,97245.28
2022-09-17T06:54:00.542Z,97239.84
2022-09-17T06:56:50.218Z,97247.41
2022-09-17T06:59:38.543Z,97257.13
2022-09-17T07:02:26.817Z,97262.88
2022-09-17T07:05:15.306Z,97241.38
2022-09-17T07:08:04.588Z,97242.09
2022-09-17T07:11:02.389Z,97241.47
2022-09-17T07:13:52.345Z,97242.47
2022-09-17T07:16:40.622Z,97244.59
2022-09-17T07:19:35.111Z,97260.03
2022-09-17T07:22:25.723Z,97235.44
2022-09-17T07:25:15.965Z,97256.22
2022-09-17T07:28:13.515Z,97241.06
2022-09-17T07:31:06.493Z,97235.06
2022-09-17T07:33:54.997Z,97255.00
2022-09-17T07:36:49.174Z,97249.97
2022-09-17T07:39:37.545Z,97249.94
2022-09-17T07:42:32.027Z,97270.44
2022-09-17T07:45:20.324Z,97289.13
2022-09-17T07:48:10.042Z,97296.34
2022-09-17T07:51:07.707Z,97296.94
2022-09-17T07:53:57.962Z,97286.22
2022-09-17T07:56:55.406Z,97285.75
2022-09-17T07:59:43.750Z,97286.16
2022-09-17T08:02:41.105Z,97292.75
2022-09-17T08:05:30.834Z,97294.25
2022-09-17T08:08:28.102Z,97292.97
2022-09-17T08:11:38.217Z,97285.84
2022-09-17T08:14:29.729Z,97285.63
2022-09-17T08:17:18.570Z,97276.88
2022-09-17T08:20:17.261Z,97282.53
2022-09-17T08:23:06.899Z,97274.34
2022-09-17T08:26:06.110Z,97281.97
2022-09-17T08:28:56.693Z,97282.31
2022-09-17T08:31:45.066Z,97268.53
2022-09-17T08:34:39.632Z,97264.81
2022-09-17T08:37:29.818Z,97274.28
2022-09-17T08:40:27.962Z,97275.28
2022-09-17T08:43:19.695Z,97285.63
2022-09-17T08:46:11.136Z,97279.06
2022-09-17T08:49:08.518Z,97278.88
2022-09-17T08:52:29.332Z,97282.34
2022-09-17T08:55:34.112Z,97282.47
2022-09-17T08:58:35.368Z,97283.34
2022-09-17T09:01:43.603Z,97291.56
2022-09-17T09:04:59.814Z,97259.47
2022-09-17T09:07:52.806Z,97273.78
2022-09-17T09:10:49.032Z,97274.13
2022-09-17T09:13:43.293Z,97252.78
2022-09-17T09:16:35.166Z,97259.59
2022-09-17T09:19:25.622Z,97263.75
2022-09-17T09:22:37.580Z,97241.88
2022-09-17T09:25:28.640Z,97246.22
2022-09-17T09:28:43.261Z,97244.25
2022-09-17T09:31:47.426Z,97266.59
2022-09-17T09:34:37.727Z,97262.50
2022-09-17T09:37:36.353Z,97272.72
2022-09-17T09:40:34.474Z,97282.03
2022-09-17T09:43:46.358Z,97279.53
2022-09-17T09:46:48.954Z,97281.03
2022-09-17T09:49:50.373Z,97269.50
2022-09-17T09:52:53.016Z,97281.13
2022-09-17T09:56:02.251Z,97287.91
2022-09-17T09:58:50.580Z,97267.34
2022-09-17T10:01:46.503Z,97280.41
2022-09-17T10:04:35.033Z,97276.44
2022-09-17T10:07:29.566Z,97307.09
2022-09-17T10:10:17.934Z,97301.06
2022-09-17T10:13:15.047Z,97290.81
2022-09-17T10:16:18.946Z,97278.94
2022-09-17T10:19:19.737Z,97285.88
2022-09-17T10:22:21.637Z,97281.88
2022-09-17T10:25:25.692Z,97269.22
2022-09-17T10:28:36.626Z,97280.59
2022-09-17T10:31:25.291Z,97279.31
2022-09-17T10:34:27.017Z,97306.44
2022-09-17T10:37:35.875Z,97287.63
2022-09-17T10:40:31.438Z,97280.13
2022-09-17T10:43:23.934Z,97286.94
2022-09-17T10:46:16.498Z,97286.72
2022-09-17T10:49:11.288Z,97290.63
2022-09-17T10:52:09.773Z,97285.97
2022-09-17T10:55:20.168Z,97284.19
2022-09-17T10:58:25.509Z,97288.22
2022-09-17T11:01:26.504Z,97276.44
2022-09-17T11:04:26.907Z,97287.88
2022-09-17T11:07:33.448Z,97293.00
2022-09-17T11:10:31.012Z,97278.94
2022-09-17T11:13:27.555Z,97284.47
2022-09-17T11:16:32.051Z,97294.38
2022-09-17T11:19:28.637Z,97311.22
2022-09-17T11:22:28.447Z,97313.09
2022-09-17T11:25:29.758Z,97303.22
2022-09-17T11:28:48.598Z,97303.31
2022-09-17T11:31:44.651Z,97306.41
2022-09-17T11:34:39.349Z,97317.50
2022-09-17T11:37:34.258Z,97311.75
2022-09-17T11:40:26.958Z,97306.41
2022-09-17T11:43:26.342Z,97304.84
2022-09-17T11:46:20.053Z,97295.56
2022-09-17T11:49:16.738Z,97312.13
2022-09-17T11:52:11.321Z,97306.13
2022-09-17T11:55:10.859Z,97310.69
2022-09-17T11:58:03.916Z,97306.94
2022-09-17T12:01:00.017Z,97301.84
2022-09-17T12:03:54.848Z,97307.00
2022-09-17T12:06:50.585Z,97295.16
2022-09-17T12:09:44.318Z,97282.53
2022-09-17T12:12:49.513Z,97283.81
2022-09-17T12:15:43.534Z,97287.78
2022-09-17T12:18:44.294Z,97272.25
2022-09-17T12:21:38.335Z,97267.28
2022-09-17T12:24:28.299Z,97265.28
2022-09-17T12:27:39.265Z,97257.09
2022-09-17T12:30:33.771Z,97251.78
2022-09-17T12:33:29.264Z,97256.09
2022-09-17T12:36:36.811Z,97258.03
2022-09-17T12:39:59.773Z,97244.78
2022-09-17T12:43:16.005Z,97232.94
2022-09-17T12:46:17.058Z,97227.34
2022-09-17T12:49:22.006Z,97221.16
2022-09-17T12:52:22.428Z,97229.16
2022-09-17T12:55:26.954Z,97248.06
2022-09-17T12:58:29.443Z,97244.94
2022-09-17T13:01:25.523Z,97211.50
2022-09-17T13:04:50.167Z,97216.41
2022-09-17T13:08:10.212Z,97237.69
2022-09-17T13:11:27.561Z,97200.81
2022-09-17T13:14:23.709Z,97210.28
2022-09-17T13:17:20.861Z,97218.88
2022-09-17T13:20:18.611Z,97221.50
2022-09-17T13:23:07.507Z,97221.13
2022-09-17T13:26:05.467Z,97224.03
2022-09-17T13:28:54.149Z,97213.38
2022-09-17T13:31:51.080Z,97205.03
2022-09-17T13:34:39.485Z,97206.31
2022-09-17T13:37:34.571Z,97219.28
2022-09-17T13:40:24.692Z,97231.22
2022-09-17T13:43:27.100Z,97234.31
2022-09-17T13:46:24.083Z,97238.88
2022-09-17T13:49:17.399Z,97240.38
2022-09-17T13:52:09.019Z,97229.53
2022-09-17T13:55:00.490Z,97212.91
2022-09-17T13:57:59.085Z,97201.75
2022-09-17T14:00:54.241Z,97208.88
2022-09-17T14:03:52.714Z,97218.81
2022-09-17T14:06:55.968Z,97205.31
2022-09-17T14:09:53.389Z,97208.38
2022-09-17T14:13:21.573Z,97205.78
2022-09-17T14:16:50.473Z,97189.59
2022-09-17T14:19:51.562Z,97172.66
2022-09-17T14:22:41.699Z,97178.44
2022-09-17T14:25:42.129Z,97177.19
2022-09-17T14:28:40.797Z,97177.88
2022-09-17T14:31:35.157Z,97184.16
2022-09-17T14:34:26.709Z,97184.47
2022-09-17T14:37:19.645Z,97194.00
2022-09-17T14:40:12.706Z,97173.56
2022-09-17T14:43:02.907Z,97170.75
2022-09-17T14:45:55.463Z,97172.44
2022-09-17T14:48:43.803Z,97178.44
2022-09-17T14:51:41.561Z,97186.34
2022-09-17T14:54:35.830Z,97191.25
2022-09-17T14:57:28.889Z,97189.34
2022-09-17T15:00:21.835Z,97190.66
2022-09-17T15:03:22.445Z,97186.47
2022-09-17T15:06:21.737Z,97184.38
2022-09-17T15:09:16.324Z,97178.63
2022-09-17T15:12:06.797Z,97178.31
2022-09-17T15:14:58.015Z,97161.31
2022-09-17T15:17:46.743Z,97157.94
2022-09-17T15:20:48.059Z,97154.50
2022-09-17T15:23:37.865Z,97159.66
2022-09-17T15:26:40.815Z,97159.78
2022-09-17T15:29:31.839Z,97159.50
2022-09-17T15:32:21.782Z,97154.59
2022-09-17T15:35:28.443Z,97157.38
2022-09-17T15:38:27.518Z,97154.81
2022-09-17T15:41:28.589Z,97170.50
2022-09-17T15:44:30.750Z,97154.81
2022-09-17T15:47:50.535Z,97170.91
2022-09-17T15:50:52.354Z,97174.75
2022-09-17T15:53:40.695Z,97173.66
2022-09-17T15:56:40.381Z,97177.25
2022-09-17T15:59:30.985Z,97175.16
2022-09-17T16:02:28.485Z,97183.22
2022-09-17T16:05:46.453Z,97190.88
2022-09-17T16:08:36.465Z,97190.72
2022-09-17T16:11:32.337Z,97186.59
2022-09-17T16:14:20.709Z,97188.41
2022-09-17T16:17:29.113Z,97186.47
2022-09-17T16:20:22.023Z,97193.25
2022-09-17T16:23:11.355Z,97200.94
2022-09-17T16:26:16.640Z,97194.03
2022-09-17T16:29:08.055Z,97205.50
2022-09-17T16:31:56.651Z,97199.41
2022-09-17T16:34:45.037Z,97200.47
2022-09-17T16:37:42.694Z,97191.19
2022-09-17T16:40:31.441Z,97193.69
2022-09-17T16:43:30.522Z,97194.69
2022-09-17T16:46:19.006Z,97187.06
2022-09-17T16:49:15.458Z,97185.09
2022-09-17T16:52:03.786Z,97180.13
2022-09-17T16:54:58.250Z,97180.25
2022-09-17T16:57:46.845Z,97178.19
2022-09-17T17:00:37.480Z,97166.81
2022-09-17T17:03:26.078Z,97184.13
2022-09-17T17:06:17.194Z,97180.66
2022-09-17T17:09:05.657Z,97186.59
2022-09-17T17:11:53.966Z,97174.22
2022-09-17T17:14:42.305Z,97160.31
2022-09-17T17:17:32.467Z,97155.34
2022-09-17T17:20:21.018Z,97158.75
2022-09-17T17:23:09.521Z,97162.34
2022-09-17T17:25:58.110Z,97161.28
2022-09-17T17:28:52.772Z,97157.53
2022-09-17T17:31:41.677Z,97158.38
2022-09-17T17:34:34.551Z,97167.81
2022-09-17T17:37:23.547Z,97159.09
2022-09-17T17:40:12.191Z,97166.19
2022-09-17T17:43:00.539Z,97165.09
2022-09-17T17:45:48.839Z,97158.88
2022-09-17T17:48:37.461Z,97157.81
2022-09-17T17:51:27.379Z,97161.13
2022-09-17T17:54:15.768Z,97152.53
2022-09-17T17:57:13.198Z,97149.06
2022-09-17T18:00:01.608Z,97154.59
2022-09-17T18:03:00.322Z,97160.13
2022-09-17T18:05:48.704Z,97165.84
2022-09-17T18:08:47.731Z,97165.78
2022-09-17T18:11:36.965Z,97167.66
2022-09-17T18:14:25.314Z,97169.00
2022-09-17T18:17:13.665Z,97166.13
2022-09-17T18:20:02.415Z,97170.19
2022-09-17T18:22:50.824Z,97161.44
2022-09-17T18:25:40.534Z,97157.63
2022-09-17T18:28:30.766Z,97160.47
2022-09-17T18:31:23.376Z,97165.56
2022-09-17T18:34:14.010Z,97157.06
2022-09-17T18:37:02.279Z,97156.66
2022-09-17T18:39:58.434Z,97156.28
2022-09-17T18:42:49.739Z,97165.28
2022-09-17T18:45:38.206Z,97169.00
2022-09-17T18:48:30.398Z,97173.31
2022-09-17T18:51:21.579Z,97184.84
2022-09-17T18:54:12.748Z,97183.63
2022-09-17T18:57:01.253Z,97187.25
2022-09-17T18:59:51.207Z,97190.88
2022-09-17T19:02:39.814Z,97185.16
2022-09-17T19:05:37.980Z,97181.47
2022-09-17T19:08:26.342Z,97175.28
2022-09-17T19:11:15.094Z,97168.28
2022-09-17T19:14:03.860Z,97167.72
2022-09-17T19:16:55.340Z,97168.66
2022-09-17T19:19:43.807Z,97157.00
2022-09-17T19:22:33.149Z,97161.25
2022-09-17T19:25:22.232Z,97155.09
2022-09-17T19:28:10.630Z,97155.59
2022-09-17T19:30:59.345Z,97153.34
2022-09-17T19:33:49.216Z,97153.59
2022-09-17T19:36:37.802Z,97155.22
2022-09-17T19:39:27.505Z,97164.94
2022-09-17T19:42:15.934Z,97148.28
2022-09-17T19:45:05.131Z,97153.44
2022-09-17T19:47:56.525Z,97169.16
2022-09-17T19:50:53.177Z,97147.16
2022-09-17T19:53:41.715Z,97160.63
2022-09-17T19:56:37.153Z,97148.19
2022-09-17T19:59:25.969Z,97144.75
2022-09-17T20:02:14.504Z,97145.41
2022-09-17T20:05:12.161Z,97151.72
2022-09-17T20:08:02.458Z,97138.38
2022-09-17T20:10:53.971Z,97153.13
2022-09-17T20:13:42.442Z,97160.47
2022-09-17T20:16:31.285Z,97157.53
2022-09-17T20:19:20.189Z,97161.38
2022-09-17T20:22:17.752Z,97159.28
2022-09-17T20:25:09.240Z,97157.06
2022-09-17T20:27:58.266Z,97158.66
2022-09-17T20:31:01.584Z,97151.13
2022-09-17T20:33:52.957Z,97144.94
2022-09-17T20:36:41.843Z,97145.97
2022-09-17T20:39:39.163Z,97143.72
2022-09-17T20:42:28.881Z,97136.75
2022-09-17T20:45:26.348Z,97129.31
2022-09-17T20:48:14.765Z,97143.16
2022-09-17T20:51:05.328Z,97143.16
2022-09-17T20:53:54.048Z,97152.00
2022-09-17T20:56:48.702Z,97135.19
2022-09-17T20:59:52.341Z,97143.78
2022-09-17T21:02:43.895Z,97139.84
2022-09-17T21:05:32.240Z,97142.03
2022-09-17T21:08:27.509Z,97134.72
2022-09-17T21:11:17.385Z,97134.19
2022-09-17T21:14:11.989Z,97142.38
2022-09-17T21:17:01.773Z,97129.81
2022-09-17T21:19:56.293Z,97121.34
2022-09-17T21:22:44.969Z,97116.16
2022-09-17T21:25:39.293Z,97125.97
2022-09-17T21:28:27.684Z,97126.59
2022-09-17T21:31:26.282Z,97117.78
2022-09-17T21:34:18.472Z,97118.72
2022-09-17T21:37:13.070Z,97122.22
2022-09-17T21:40:01.550Z,97112.75
2022-09-17T21:42:56.114Z,97128.63
2022-09-17T21:45:44.561Z,97121.75
2022-09-17T21:48:35.022Z,97120.75
2022-09-17T21:51:26.532Z,97116.88
2022-09-17T21:54:17.058Z,97121.59
2022-09-17T21:57:05.972Z,97128.25
2022-09-17T22:00:00.175Z,97123.38
2022-09-17T22:02:48.518Z,97123.34
2022-09-17T22:05:42.765Z,97124.44
2022-09-17T22:08:33.564Z,97127.25
2022-09-17T22:11:24.090Z,97131.53
2022-09-17T22:14:14.758Z,97135.16
2022-09-17T22:17:03.150Z,97126.25
2022-09-17T22:20:00.420Z,97135.53
2022-09-17T22:22:49.014Z,97138.78
2022-09-17T22:25:47.735Z,97135.00
2022-09-17T22:28:36.672Z,97135.59
2022-09-17T22:31:26.269Z,97125.72
2022-09-17T22:34:16.806Z,97135.00
2022-09-17T22:37:06.385Z,97130.44
2022-09-17T22:39:55.805Z,97135.28
2022-09-17T22:42:45.587Z,97126.03
2022-09-17T22:45:39.867Z,97135.25
2022-09-17T22:48:28.216Z,97129.16
2022-09-17T22:51:16.749Z,97134.31
2022-09-17T22:54:05.521Z,97132.00
2022-09-17T22:56:53.902Z,97129.09
2022-09-17T22:59:43.693Z,97135.00
2022-09-17T23:02:38.013Z,97124.72
2022-09-17T23:05:26.419Z,97137.97
2022-09-17T23:08:20.736Z,97128.22
2022-09-17T23:11:16.372Z,97127.34
2022-09-17T23:14:06.402Z,97131.25
2022-09-17T23:17:05.175Z,97135.53
2022-09-17T23:19:53.550Z,97128.38
2022-09-17T23:22:51.080Z,97125.78
2022-09-17T23:25:39.390Z,97129.16
2022-09-17T23:28:37.583Z,97116.19
2022-09-17T23:31:28.508Z,97122.94
2022-09-17T23:34:18.319Z,97117.28
2022-09-17T23:37:12.904Z,97119.34
2022-09-17T23:40:01.310Z,97115.13
2022-09-17T23:42:56.028Z,97104.69
2022-09-17T23:45:44.425Z,97101.16
2022-09-17T23:48:32.845Z,97099.16
2022-09-17T23:51:23.245Z,97109.69
2022-09-17T23:54:12.423Z,97101.13
2022-09-17T23:57:00.956Z,97096.94
2022-09-17T23:59:49.428Z,97104.97
